Standard, Canada
Current Conditions -  °F | °C
As of 7:00 PM on Friday 19 Dec 2014 (Local Time) from CYYC Reporting Station
Overcast Overcast  
Wind Chill: 33°   Ceiling: 12000
Heat Index: 41°   Visibility: 15mi
Dew Point: 25°   Wind: 14mph
Humidity: 53%   Direction: 260°W
Pressure: 29.63"   Gusts: 22mph
Location:  51.12°N, 112.98°W
Report Text: CYYC 200200Z 26012G19KT 15SM OVC120 05/M04 A2963 RMK AC8 SLP078
Loading
Personal Weather Stations






























Interactive Weather Map New forecast layout! Learn more

10-Day Weather Forecast

Advertisements
Track Severe Weather on mobile